sensor_id;sensor_type;location;lat;lon;timestamp;pressure;altitude;pressure_sealevel;temperature;humidity
66762;BME280;53672;48.176;16.338;2023-03-01T00:01:58;100176.34;;;-1.17;76.35
66762;BME280;53672;48.176;16.338;2023-03-01T00:07:00;100171.31;;;-1.12;77.04
66762;BME280;53672;48.176;16.338;2023-03-01T00:12:00;100172.03;;;-1.18;78.09
66762;BME280;53672;48.176;16.338;2023-03-01T00:17:01;100166.44;;;-1.37;77.77
66762;BME280;53672;48.176;16.338;2023-03-01T00:22:02;100158.25;;;-1.50;79.23
66762;BME280;53672;48.176;16.338;2023-03-01T00:27:03;100159.78;;;-1.56;80.05
66762;BME280;53672;48.176;16.338;2023-03-01T00:32:04;100154.09;;;-1.68;80.14
66762;BME280;53672;48.176;16.338;2023-03-01T00:37:06;100162.56;;;-1.72;80.27
66762;BME280;53672;48.176;16.338;2023-03-01T00:42:06;100161.31;;;-1.84;80.18
66762;BME280;53672;48.176;16.338;2023-03-01T00:47:07;100153.63;;;-1.94;81.33
66762;BME280;53672;48.176;16.338;2023-03-01T00:52:08;100147.56;;;-2.02;81.13
66762;BME280;53672;48.176;16.338;2023-03-01T00:57:09;100142.50;;;-2.12;82.25
66762;BME280;53672;48.176;16.338;2023-03-01T01:02:09;100139.56;;;-2.17;83.10
66762;BME280;53672;48.176;16.338;2023-03-01T01:07:11;100139.25;;;-2.22;82.22
66762;BME280;53672;48.176;16.338;2023-03-01T01:12:12;100140.75;;;-2.20;81.07
66762;BME280;53672;48.176;16.338;2023-03-01T01:17:12;100134.19;;;-2.32;83.15
66762;BME280;53672;48.176;16.338;2023-03-01T01:22:14;100144.50;;;-2.14;84.09
66762;BME280;53672;48.176;16.338;2023-03-01T01:27:15;100136.47;;;-1.98;83.13
66762;BME280;53672;48.176;16.338;2023-03-01T01:32:15;100122.03;;;-1.87;82.65
66762;BME280;53672;48.176;16.338;2023-03-01T01:37:17;100120.91;;;-1.70;82.82
66762;BME280;53672;48.176;16.338;2023-03-01T01:42:18;100119.78;;;-1.53;82.04
66762;BME280;53672;48.176;16.338;2023-03-01T01:47:20;100114.34;;;-1.37;80.97
66762;BME280;53672;48.176;16.338;2023-03-01T01:52:26;100113.41;;;-1.21;80.14
66762;BME280;53672;48.176;16.338;2023-03-01T01:57:31;100109.84;;;-1.14;79.43
66762;BME280;53672;48.176;16.338;2023-03-01T02:02:32;100116.06;;;-1.07;79.89
66762;BME280;53672;48.176;16.338;2023-03-01T02:07:34;100103.38;;;-0.96;78.36
66762;BME280;53672;48.176;16.338;2023-03-01T02:12:35;100104.94;;;-0.87;78.67
66762;BME280;53672;48.176;16.338;2023-03-01T02:17:37;100090.78;;;-0.80;77.41
66762;BME280;53672;48.176;16.338;2023-03-01T02:22:39;100102.75;;;-0.69;76.41
66762;BME280;53672;48.176;16.338;2023-03-01T02:27:47;100093.69;;;-0.60;77.20
66762;BME280;53672;48.176;16.338;2023-03-01T02:32:52;100095.88;;;-0.49;76.68
66762;BME280;53672;48.176;16.338;2023-03-01T02:37:54;100093.91;;;-0.40;76.09
66762;BME280;53672;48.176;16.338;2023-03-01T02:42:57;100089.16;;;-0.30;75.78
66762;BME280;53672;48.176;16.338;2023-03-01T02:47:59;100081.66;;;-0.27;76.34
66762;BME280;53672;48.176;16.338;2023-03-01T02:53:01;100091.69;;;-0.22;74.82
66762;BME280;53672;48.176;16.338;2023-03-01T02:58:08;100081.53;;;-0.19;74.12
66762;BME280;53672;48.176;16.338;2023-03-01T03:03:10;100083.44;;;-0.13;74.64
66762;BME280;53672;48.176;16.338;2023-03-01T03:08:12;100078.78;;;-0.11;74.97
66762;BME280;53672;48.176;16.338;2023-03-01T03:13:13;100077.75;;;-0.10;74.75
66762;BME280;53672;48.176;16.338;2023-03-01T03:18:16;100063.91;;;-0.12;74.24
66762;BME280;53672;48.176;16.338;2023-03-01T03:23:18;100060.03;;;-0.09;74.55
66762;BME280;53672;48.176;16.338;2023-03-01T03:28:18;100059.41;;;-0.11;74.39
66762;BME280;53672;48.176;16.338;2023-03-01T03:33:20;100057.00;;;-0.06;73.64
66762;BME280;53672;48.176;16.338;2023-03-01T03:38:21;100060.94;;;-0.02;74.12
66762;BME280;53672;48.176;16.338;2023-03-01T03:43:22;100056.28;;;0.00;74.73
66762;BME280;53672;48.176;16.338;2023-03-01T03:48:25;100064.03;;;0.02;74.35
66762;BME280;53672;48.176;16.338;2023-03-01T03:53:27;100060.16;;;0.04;74.29
66762;BME280;53672;48.176;16.338;2023-03-01T03:58:29;100043.88;;;0.07;74.54
66762;BME280;53672;48.176;16.338;2023-03-01T04:03:32;100052.16;;;0.19;73.68
66762;BME280;53672;48.176;16.338;2023-03-01T04:08:33;100052.19;;;0.25;72.66
66762;BME280;53672;48.176;16.338;2023-03-01T04:13:33;100053.09;;;0.32;71.79
66762;BME280;53672;48.176;16.338;2023-03-01T04:18:35;100049.88;;;0.37;71.69
66762;BME280;53672;48.176;16.338;2023-03-01T04:23:35;100045.44;;;0.44;70.95
66762;BME280;53672;48.176;16.338;2023-03-01T04:28:38;100056.28;;;0.49;71.20
66762;BME280;53672;48.176;16.338;2023-03-01T04:33:40;100052.41;;;0.51;71.00
66762;BME280;53672;48.176;16.338;2023-03-01T04:38:42;100047.69;;;0.47;70.73
66762;BME280;53672;48.176;16.338;2023-03-01T04:43:43;100047.69;;;0.47;70.53
66762;BME280;53672;48.176;16.338;2023-03-01T04:48:45;100048.31;;;0.49;70.52
66762;BME280;53672;48.176;16.338;2023-03-01T04:53:46;100052.63;;;0.50;71.00
66762;BME280;53672;48.176;16.338;2023-03-01T04:58:47;100055.50;;;0.55;70.83
66762;BME280;53672;48.176;16.338;2023-03-01T05:03:50;100059.19;;;0.54;70.61
66762;BME280;53672;48.176;16.338;2023-03-01T05:08:51;100066.75;;;0.57;71.14
66762;BME280;53672;48.176;16.338;2023-03-01T05:13:51;100071.63;;;0.54;70.46
66762;BME280;53672;48.176;16.338;2023-03-01T05:18:53;100066.09;;;0.55;70.16
66762;BME280;53672;48.176;16.338;2023-03-01T05:23:53;100074.25;;;0.54;71.07
66762;BME280;53672;48.176;16.338;2023-03-01T05:28:54;100071.78;;;0.52;70.48
66762;BME280;53672;48.176;16.338;2023-03-01T05:33:56;100072.44;;;0.54;70.55
66762;BME280;53672;48.176;16.338;2023-03-01T05:38:56;100077.53;;;0.56;70.93
66762;BME280;53672;48.176;16.338;2023-03-01T05:43:57;100076.72;;;0.55;70.73
66762;BME280;53672;48.176;16.338;2023-03-01T05:48:59;100082.88;;;0.62;70.24
66762;BME280;53672;48.176;16.338;2023-03-01T05:53:59;100079.84;;;0.65;70.84
66762;BME280;53672;48.176;16.338;2023-03-01T05:59:00;100087.88;;;0.72;70.79
66762;BME280;53672;48.176;16.338;2023-03-01T06:04:02;100091.19;;;0.80;70.03
66762;BME280;53672;48.176;16.338;2023-03-01T06:09:03;100094.28;;;0.84;69.57
66762;BME280;53672;48.176;16.338;2023-03-01T06:14:05;100099.75;;;0.82;69.59
66762;BME280;53672;48.176;16.338;2023-03-01T06:19:07;100097.84;;;0.97;69.36
66762;BME280;53672;48.176;16.338;2023-03-01T06:24:08;100090.59;;;1.13;69.17
66762;BME280;53672;48.176;16.338;2023-03-01T06:29:08;100088.41;;;1.23;68.66
66762;BME280;53672;48.176;16.338;2023-03-01T06:34:10;100095.19;;;1.32;68.15
66762;BME280;53672;48.176;16.338;2023-03-01T06:39:11;100089.25;;;1.30;67.84
66762;BME280;53672;48.176;16.338;2023-03-01T06:44:11;100099.66;;;1.31;67.77
66762;BME280;53672;48.176;16.338;2023-03-01T06:49:13;100098.09;;;1.43;67.35
66762;BME280;53672;48.176;16.338;2023-03-01T06:54:14;100102.09;;;1.67;67.48
66762;BME280;53672;48.176;16.338;2023-03-01T06:59:14;100108.25;;;1.81;67.28
66762;BME280;53672;48.176;16.338;2023-03-01T07:04:16;100106.47;;;1.94;66.75
66762;BME280;53672;48.176;16.338;2023-03-01T07:09:16;100110.56;;;1.97;66.52
66762;BME280;53672;48.176;16.338;2023-03-01T07:14:17;100098.88;;;1.85;67.09
66762;BME280;53672;48.176;16.338;2023-03-01T07:19:19;100099.88;;;1.84;66.86
66762;BME280;53672;48.176;16.338;2023-03-01T07:24:20;100098.09;;;1.97;66.44
66762;BME280;53672;48.176;16.338;2023-03-01T07:29:20;100094.63;;;2.17;65.86
66762;BME280;53672;48.176;16.338;2023-03-01T07:34:22;100095.88;;;2.27;65.21
66762;BME280;53672;48.176;16.338;2023-03-01T07:39:23;100099.19;;;2.55;64.45
66762;BME280;53672;48.176;16.338;2023-03-01T07:44:24;100095.09;;;2.66;63.21
66762;BME280;53672;48.176;16.338;2023-03-01T07:49:26;100099.78;;;2.64;63.18
66762;BME280;53672;48.176;16.338;2023-03-01T07:54:27;100100.38;;;2.92;62.39
66762;BME280;53672;48.176;16.338;2023-03-01T07:59:27;100100.16;;;3.07;61.40
66762;BME280;53672;48.176;16.338;2023-03-01T08:04:29;100096.50;;;2.88;61.49
66762;BME280;53672;48.176;16.338;2023-03-01T08:09:29;100093.56;;;3.16;60.73
66762;BME280;53672;48.176;16.338;2023-03-01T08:14:30;100094.41;;;3.10;61.14
66762;BME280;53672;48.176;16.338;2023-03-01T08:19:32;100094.34;;;3.36;60.38
66762;BME280;53672;48.176;16.338;2023-03-01T08:24:32;100088.34;;;3.54;60.15
66762;BME280;53672;48.176;16.338;2023-03-01T08:29:33;100094.84;;;3.65;59.22
66762;BME280;53672;48.176;16.338;2023-03-01T08:34:35;100095.44;;;3.73;60.33
66762;BME280;53672;48.176;16.338;2023-03-01T08:39:36;100090.84;;;3.93;58.88
66762;BME280;53672;48.176;16.338;2023-03-01T08:44:36;100085.50;;;4.99;56.75
66762;BME280;53672;48.176;16.338;2023-03-01T08:49:38;100073.19;;;6.42;50.83
66762;BME280;53672;48.176;16.338;2023-03-01T08:54:38;100068.28;;;4.45;56.38
66762;BME280;53672;48.176;16.338;2023-03-01T08:59:39;100069.44;;;4.56;56.13
66762;BME280;53672;48.176;16.338;2023-03-01T09:04:41;100069.09;;;6.28;51.72
66762;BME280;53672;48.176;16.338;2023-03-01T09:09:42;100055.75;;;7.21;48.53
66762;BME280;53672;48.176;16.338;2023-03-01T09:14:42;100059.88;;;9.25;43.23
66762;BME280;53672;48.176;16.338;2023-03-01T09:19:44;100059.31;;;9.88;41.47
66762;BME280;53672;48.176;16.338;2023-03-01T09:24:45;100048.22;;;8.97;42.33
66762;BME280;53672;48.176;16.338;2023-03-01T09:29:45;100035.81;;;8.13;45.19
66762;BME280;53672;48.176;16.338;2023-03-01T09:34:47;100036.38;;;10.34;39.83
66762;BME280;53672;48.176;16.338;2023-03-01T09:39:47;100031.63;;;9.22;41.15
66762;BME280;53672;48.176;16.338;2023-03-01T09:44:51;100029.63;;;7.16;45.88
66762;BME280;53672;48.176;16.338;2023-03-01T09:50:00;100020.44;;;7.63;44.24
66762;BME280;53672;48.176;16.338;2023-03-01T09:55:08;100023.22;;;7.29;44.74
66762;BME280;53672;48.176;16.338;2023-03-01T10:00:18;100014.53;;;6.87;46.61
66762;BME280;53672;48.176;16.338;2023-03-01T10:05:42;100010.13;;;6.57;46.72
66762;BME280;53672;48.176;16.338;2023-03-01T10:10:46;100007.44;;;6.69;46.92
66762;BME280;53672;48.176;16.338;2023-03-01T10:15:49;99999.88;;;6.66;46.86
66762;BME280;53672;48.176;16.338;2023-03-01T10:20:53;99999.47;;;6.04;49.92
66762;BME280;53672;48.176;16.338;2023-03-01T10:26:21;99989.66;;;5.69;50.53
66762;BME280;53672;48.176;16.338;2023-03-01T10:31:27;99998.03;;;7.86;45.03
66762;BME280;53672;48.176;16.338;2023-03-01T10:36:33;99981.06;;;9.73;41.32
66762;BME280;53672;48.176;16.338;2023-03-01T10:41:33;99974.47;;;10.86;37.99
66762;BME280;53672;48.176;16.338;2023-03-01T10:46:40;99960.44;;;8.48;43.69
66762;BME280;53672;48.176;16.338;2023-03-01T10:51:43;99954.47;;;8.84;42.34
66762;BME280;53672;48.176;16.338;2023-03-01T10:56:49;99948.50;;;10.69;38.65
66762;BME280;53672;48.176;16.338;2023-03-01T11:02:14;99936.13;;;8.98;41.51
66762;BME280;53672;48.176;16.338;2023-03-01T11:07:17;99922.00;;;10.56;39.24
66762;BME280;53672;48.176;16.338;2023-03-01T11:12:17;99910.56;;;10.81;37.24
66762;BME280;53672;48.176;16.338;2023-03-01T11:17:23;99914.38;;;9.80;39.72
66762;BME280;53672;48.176;16.338;2023-03-01T11:22:26;99903.66;;;9.53;40.75
66762;BME280;53672;48.176;16.338;2023-03-01T11:27:30;99898.91;;;10.76;38.79
66762;BME280;53672;48.176;16.338;2023-03-01T11:38:03;99915.72;;;11.85;35.58
66762;BME280;53672;48.176;16.338;2023-03-01T11:43:15;99904.56;;;9.37;40.79
66762;BME280;53672;48.176;16.338;2023-03-01T11:48:37;99901.47;;;9.01;43.35
66762;BME280;53672;48.176;16.338;2023-03-01T11:53:53;99902.03;;;8.82;43.63
66762;BME280;53672;48.176;16.338;2023-03-01T11:59:23;99894.34;;;8.13;45.03
66762;BME280;53672;48.176;16.338;2023-03-01T12:04:46;99893.13;;;6.98;48.49
66762;BME280;53672;48.176;16.338;2023-03-01T12:10:15;99894.84;;;7.77;47.26
66762;BME280;53672;48.176;16.338;2023-03-01T12:15:40;99893.03;;;8.16;46.21
66762;BME280;53672;48.176;16.338;2023-03-01T12:20:50;99893.75;;;7.17;49.17
66762;BME280;53672;48.176;16.338;2023-03-01T12:26:01;99884.56;;;6.73;51.06
66762;BME280;53672;48.176;16.338;2023-03-01T12:31:36;99865.22;;;7.39;50.13
66762;BME280;53672;48.176;16.338;2023-03-01T12:36:55;99867.94;;;6.99;51.51
66762;BME280;53672;48.176;16.338;2023-03-01T12:42:07;99869.28;;;6.85;52.18
66762;BME280;53672;48.176;16.338;2023-03-01T12:47:20;99865.25;;;7.72;50.08
66762;BME280;53672;48.176;16.338;2023-03-01T12:52:28;99869.25;;;7.25;51.19
66762;BME280;53672;48.176;16.338;2023-03-01T12:57:37;99852.19;;;8.31;48.37
66762;BME280;53672;48.176;16.338;2023-03-01T13:02:44;99831.88;;;9.05;48.21
66762;BME280;53672;48.176;16.338;2023-03-01T13:07:53;99831.97;;;8.45;47.91
66762;BME280;53672;48.176;16.338;2023-03-01T13:13:21;99843.72;;;8.82;47.94
66762;BME280;53672;48.176;16.338;2023-03-01T13:18:30;99838.13;;;9.10;46.76
66762;BME280;53672;48.176;16.338;2023-03-01T13:23:35;99836.38;;;8.73;47.73
66762;BME280;53672;48.176;16.338;2023-03-01T13:28:51;99834.59;;;9.63;45.46
66762;BME280;53672;48.176;16.338;2023-03-01T13:33:52;99821.72;;;8.85;47.71
66762;BME280;53672;48.176;16.338;2023-03-01T13:38:56;99809.56;;;8.18;49.29
66762;BME280;53672;48.176;16.338;2023-03-01T13:43:59;99813.31;;;8.55;48.61
66762;BME280;53672;48.176;16.338;2023-03-01T13:49:00;99810.63;;;8.77;47.76
66762;BME280;53672;48.176;16.338;2023-03-01T13:54:00;99799.91;;;8.60;48.72
66762;BME280;53672;48.176;16.338;2023-03-01T13:59:05;99799.16;;;8.86;47.81
66762;BME280;53672;48.176;16.338;2023-03-01T14:04:19;99788.13;;;8.39;48.19
66762;BME280;53672;48.176;16.338;2023-03-01T14:09:22;99779.16;;;8.77;48.72
66762;BME280;53672;48.176;16.338;2023-03-01T14:14:50;99767.13;;;9.11;47.84
66762;BME280;53672;48.176;16.338;2023-03-01T14:19:56;99772.19;;;8.33;49.82
66762;BME280;53672;48.176;16.338;2023-03-01T14:24:59;99765.72;;;8.12;51.08
66762;BME280;53672;48.176;16.338;2023-03-01T14:30:03;99758.09;;;8.04;51.27
66762;BME280;53672;48.176;16.338;2023-03-01T14:35:20;99762.28;;;7.78;52.21
66762;BME280;53672;48.176;16.338;2023-03-01T14:40:24;99764.13;;;7.39;53.03
66762;BME280;53672;48.176;16.338;2023-03-01T14:45:28;99762.41;;;7.33;53.78
66762;BME280;53672;48.176;16.338;2023-03-01T14:50:31;99760.69;;;7.44;54.11
66762;BME280;53672;48.176;16.338;2023-03-01T14:55:33;99750.47;;;7.24;54.89
66762;BME280;53672;48.176;16.338;2023-03-01T15:00:37;99756.88;;;7.40;54.93
66762;BME280;53672;48.176;16.338;2023-03-01T15:05:39;99745.09;;;7.57;54.71
66762;BME280;53672;48.176;16.338;2023-03-01T15:10:41;99746.69;;;7.75;54.29
66762;BME280;53672;48.176;16.338;2023-03-01T15:16:03;99739.66;;;7.19;55.89
66762;BME280;53672;48.176;16.338;2023-03-01T15:21:06;99739.25;;;7.27;55.47
66762;BME280;53672;48.176;16.338;2023-03-01T15:26:22;99742.03;;;7.16;55.92
66762;BME280;53672;48.176;16.338;2023-03-01T15:31:26;99746.47;;;7.10;56.02
66762;BME280;53672;48.176;16.338;2023-03-01T15:36:35;99746.13;;;7.06;56.56
66762;BME280;53672;48.176;16.338;2023-03-01T15:41:46;99745.41;;;6.94;56.48
66762;BME280;53672;48.176;16.338;2023-03-01T15:46:48;99743.06;;;6.98;56.71
66762;BME280;53672;48.176;16.338;2023-03-01T15:51:49;99750.19;;;6.92;56.79
66762;BME280;53672;48.176;16.338;2023-03-01T15:56:50;99750.44;;;6.91;56.83
66762;BME280;53672;48.176;16.338;2023-03-01T16:01:51;99746.84;;;6.85;57.40
66762;BME280;53672;48.176;16.338;2023-03-01T16:06:53;99739.75;;;6.79;57.29
66762;BME280;53672;48.176;16.338;2023-03-01T16:11:54;99740.34;;;6.81;57.12
66762;BME280;53672;48.176;16.338;2023-03-01T16:16:56;99737.41;;;6.83;56.88
66762;BME280;53672;48.176;16.338;2023-03-01T16:21:57;99736.13;;;6.85;56.71
66762;BME280;53672;48.176;16.338;2023-03-01T16:26:57;99742.06;;;6.87;57.15
66762;BME280;53672;48.176;16.338;2023-03-01T16:32:02;99734.19;;;6.81;57.03
66762;BME280;53672;48.176;16.338;2023-03-01T16:37:02;99732.22;;;6.76;56.84
66762;BME280;53672;48.176;16.338;2023-03-01T16:42:04;99741.28;;;6.75;56.82
66762;BME280;53672;48.176;16.338;2023-03-01T16:47:06;99748.41;;;6.81;56.81
66762;BME280;53672;48.176;16.338;2023-03-01T16:52:07;99746.16;;;6.78;56.80
66762;BME280;53672;48.176;16.338;2023-03-01T16:57:10;99745.84;;;6.75;57.05
66762;BME280;53672;48.176;16.338;2023-03-01T17:02:13;99752.50;;;6.72;56.05
66762;BME280;53672;48.176;16.338;2023-03-01T17:07:14;99752.75;;;6.71;56.46
66762;BME280;53672;48.176;16.338;2023-03-01T17:12:15;99755.91;;;6.68;56.54
66762;BME280;53672;48.176;16.338;2023-03-01T17:17:17;99749.75;;;6.67;55.89
66762;BME280;53672;48.176;16.338;2023-03-01T17:22:18;99747.22;;;6.60;56.37
66762;BME280;53672;48.176;16.338;2023-03-01T17:27:20;99751.16;;;6.58;56.61
66762;BME280;53672;48.176;16.338;2023-03-01T17:32:25;99751.56;;;6.50;56.78
66762;BME280;53672;48.176;16.338;2023-03-01T17:37:26;99764.00;;;6.44;56.70
66762;BME280;53672;48.176;16.338;2023-03-01T17:42:27;99762.16;;;6.45;57.03
66762;BME280;53672;48.176;16.338;2023-03-01T17:47:29;99765.78;;;6.39;57.27
66762;BME280;53672;48.176;16.338;2023-03-01T17:52:31;99762.34;;;6.27;57.79
66762;BME280;53672;48.176;16.338;2023-03-01T17:57:31;99756.75;;;6.17;57.69
66762;BME280;53672;48.176;16.338;2023-03-01T18:02:33;99759.59;;;5.98;58.62
66762;BME280;53672;48.176;16.338;2023-03-01T18:07:34;99757.56;;;5.82;59.28
66762;BME280;53672;48.176;16.338;2023-03-01T18:12:35;99754.47;;;5.74;60.01
66762;BME280;53672;48.176;16.338;2023-03-01T18:17:37;99751.56;;;5.40;60.79
66762;BME280;53672;48.176;16.338;2023-03-01T18:22:38;99760.47;;;5.23;61.43
66762;BME280;53672;48.176;16.338;2023-03-01T18:27:39;99754.03;;;5.00;63.02
66762;BME280;53672;48.176;16.338;2023-03-01T18:32:43;99756.78;;;4.82;63.83
66762;BME280;53672;48.176;16.338;2023-03-01T18:37:47;99755.34;;;4.68;64.64
66762;BME280;53672;48.176;16.338;2023-03-01T18:42:48;99761.31;;;4.52;65.32
66762;BME280;53672;48.176;16.338;2023-03-01T18:47:51;99755.34;;;4.38;65.65
66762;BME280;53672;48.176;16.338;2023-03-01T18:52:52;99756.09;;;4.27;66.61
66762;BME280;53672;48.176;16.338;2023-03-01T18:57:54;99757.31;;;4.25;66.40
66762;BME280;53672;48.176;16.338;2023-03-01T19:02:57;99754.81;;;4.30;66.27
66762;BME280;53672;48.176;16.338;2023-03-01T19:07:58;99747.63;;;4.30;66.80
66762;BME280;53672;48.176;16.338;2023-03-01T19:12:59;99748.63;;;4.18;66.98
66762;BME280;53672;48.176;16.338;2023-03-01T19:18:01;99746.16;;;3.98;68.35
66762;BME280;53672;48.176;16.338;2023-03-01T19:23:02;99741.59;;;3.87;69.37
66762;BME280;53672;48.176;16.338;2023-03-01T19:28:04;99742.31;;;3.76;69.86
66762;BME280;53672;48.176;16.338;2023-03-01T19:33:06;99741.75;;;3.67;71.00
66762;BME280;53672;48.176;16.338;2023-03-01T19:38:07;99746.78;;;3.57;71.73
66762;BME280;53672;48.176;16.338;2023-03-01T19:43:10;99734.63;;;3.43;72.16
66762;BME280;53672;48.176;16.338;2023-03-01T19:48:12;99736.59;;;3.29;72.91
66762;BME280;53672;48.176;16.338;2023-03-01T19:53:14;99743.03;;;3.22;73.27
66762;BME280;53672;48.176;16.338;2023-03-01T19:58:16;99741.06;;;3.11;72.77
66762;BME280;53672;48.176;16.338;2023-03-01T20:03:19;99736.44;;;2.99;74.79
66762;BME280;53672;48.176;16.338;2023-03-01T20:08:20;99748.16;;;2.92;74.96
66762;BME280;53672;48.176;16.338;2023-03-01T20:13:21;99756.19;;;2.85;75.36
66762;BME280;53672;48.176;16.338;2023-03-01T20:18:24;99765.28;;;2.71;75.01
66762;BME280;53672;48.176;16.338;2023-03-01T20:23:28;99769.44;;;2.61;75.31
66762;BME280;53672;48.176;16.338;2023-03-01T20:28:29;99770.09;;;2.56;74.53
66762;BME280;53672;48.176;16.338;2023-03-01T20:33:32;99765.22;;;2.40;77.17
66762;BME280;53672;48.176;16.338;2023-03-01T20:38:34;99766.50;;;2.31;77.77
66762;BME280;53672;48.176;16.338;2023-03-01T20:43:36;99768.78;;;2.27;77.59
66762;BME280;53672;48.176;16.338;2023-03-01T20:48:39;99772.69;;;2.25;78.51
66762;BME280;53672;48.176;16.338;2023-03-01T20:53:40;99769.00;;;2.26;77.72
66762;BME280;53672;48.176;16.338;2023-03-01T20:58:45;99762.63;;;2.27;78.09
66762;BME280;53672;48.176;16.338;2023-03-01T21:03:48;99763.88;;;2.24;78.78
66762;BME280;53672;48.176;16.338;2023-03-01T21:08:48;99771.50;;;2.14;78.24
66762;BME280;53672;48.176;16.338;2023-03-01T21:13:49;99759.00;;;2.15;79.37
66762;BME280;53672;48.176;16.338;2023-03-01T21:18:51;99761.06;;;2.19;78.48
66762;BME280;53672;48.176;16.338;2023-03-01T21:23:52;99762.22;;;2.30;78.37
66762;BME280;53672;48.176;16.338;2023-03-01T21:28:55;99768.53;;;2.35;78.37
66762;BME280;53672;48.176;16.338;2023-03-01T21:33:59;99752.53;;;2.48;77.92
66762;BME280;53672;48.176;16.338;2023-03-01T21:39:00;99750.41;;;2.57;77.61
66762;BME280;53672;48.176;16.338;2023-03-01T21:44:02;99753.66;;;2.66;77.27
66762;BME280;53672;48.176;16.338;2023-03-01T21:49:05;99744.41;;;2.68;76.84
66762;BME280;53672;48.176;16.338;2023-03-01T21:54:07;99755.22;;;2.80;76.11
66762;BME280;53672;48.176;16.338;2023-03-01T21:59:12;99748.97;;;2.92;74.73
66762;BME280;53672;48.176;16.338;2023-03-01T22:04:16;99747.28;;;2.98;75.64
66762;BME280;53672;48.176;16.338;2023-03-01T22:09:19;99744.06;;;3.21;72.37
66762;BME280;53672;48.176;16.338;2023-03-01T22:14:20;99740.63;;;3.38;70.32
66762;BME280;53672;48.176;16.338;2023-03-01T22:19:22;99744.28;;;3.62;66.87
66762;BME280;53672;48.176;16.338;2023-03-01T22:24:24;99743.91;;;3.77;65.59
66762;BME280;53672;48.176;16.338;2023-03-01T22:29:27;99752.63;;;3.90;64.80
66762;BME280;53672;48.176;16.338;2023-03-01T22:34:29;99748.38;;;4.01;64.87
66762;BME280;53672;48.176;16.338;2023-03-01T22:39:30;99752.22;;;4.05;64.79
66762;BME280;53672;48.176;16.338;2023-03-01T22:44:31;99747.50;;;4.07;63.98
66762;BME280;53672;48.176;16.338;2023-03-01T22:49:33;99747.88;;;4.11;63.71
66762;BME280;53672;48.176;16.338;2023-03-01T22:54:33;99746.25;;;4.09;63.10
66762;BME280;53672;48.176;16.338;2023-03-01T22:59:34;99752.16;;;4.12;63.08
66762;BME280;53672;48.176;16.338;2023-03-01T23:04:36;99753.78;;;4.13;63.19
66762;BME280;53672;48.176;16.338;2023-03-01T23:09:36;99756.47;;;4.13;63.32
66762;BME280;53672;48.176;16.338;2023-03-01T23:14:37;99750.16;;;4.07;63.41
66762;BME280;53672;48.176;16.338;2023-03-01T23:19:38;99747.72;;;4.05;63.47
66762;BME280;53672;48.176;16.338;2023-03-01T23:24:39;99744.09;;;4.00;63.25
66762;BME280;53672;48.176;16.338;2023-03-01T23:29:40;99750.47;;;3.99;62.93
66762;BME280;53672;48.176;16.338;2023-03-01T23:34:42;99742.47;;;3.99;63.41
66762;BME280;53672;48.176;16.338;2023-03-01T23:39:42;99738.97;;;3.98;63.12
66762;BME280;53672;48.176;16.338;2023-03-01T23:44:43;99739.06;;;3.92;63.18
66762;BME280;53672;48.176;16.338;2023-03-01T23:49:45;99740.69;;;3.93;63.30
66762;BME280;53672;48.176;16.338;2023-03-01T23:54:45;99735.13;;;3.94;63.98
66762;BME280;53672;48.176;16.338;2023-03-01T23:59:46;99735.72;;;3.96;63.14
